sensor_id;sensor_type;location;lat;lon;timestamp;temperature;humidity
13354;DHT22;6746;50.892;4.064;2022-10-16T00:00:17;13.30;99.90
13354;DHT22;6746;50.892;4.064;2022-10-16T00:02:55;13.20;99.90
13354;DHT22;6746;50.892;4.064;2022-10-16T00:05:33;13.30;99.90
13354;DHT22;6746;50.892;4.064;2022-10-16T00:08:13;13.20;99.90
13354;DHT22;6746;50.892;4.064;2022-10-16T00:10:51;13.20;99.90
13354;DHT22;6746;50.892;4.064;2022-10-16T00:13:38;13.20;99.90
13354;DHT22;6746;50.892;4.064;2022-10-16T00:16:15;13.30;99.90
13354;DHT22;6746;50.892;4.064;2022-10-16T00:18:55;13.30;99.90
13354;DHT22;6746;50.892;4.064;2022-10-16T00:21:33;13.30;99.90
13354;DHT22;6746;50.892;4.064;2022-10-16T00:24:11;13.40;99.90
13354;DHT22;6746;50.892;4.064;2022-10-16T00:26:49;13.40;99.90
13354;DHT22;6746;50.892;4.064;2022-10-16T00:29:27;13.30;99.90
13354;DHT22;6746;50.892;4.064;2022-10-16T00:32:05;13.30;99.90
13354;DHT22;6746;50.892;4.064;2022-10-16T00:34:43;13.20;99.90
13354;DHT22;6746;50.892;4.064;2022-10-16T00:37:21;13.20;99.90
13354;DHT22;6746;50.892;4.064;2022-10-16T00:40:07;13.20;99.90
13354;DHT22;6746;50.892;4.064;2022-10-16T00:42:45;13.20;99.90
13354;DHT22;6746;50.892;4.064;2022-10-16T00:45:23;13.10;99.90
13354;DHT22;6746;50.892;4.064;2022-10-16T00:48:01;13.10;99.90
13354;DHT22;6746;50.892;4.064;2022-10-16T00:50:39;13.00;99.90
13354;DHT22;6746;50.892;4.064;2022-10-16T00:53:17;13.00;99.90
13354;DHT22;6746;50.892;4.064;2022-10-16T00:55:58;13.00;99.90
13354;DHT22;6746;50.892;4.064;2022-10-16T00:58:35;13.00;99.90
13354;DHT22;6746;50.892;4.064;2022-10-16T01:01:13;13.00;99.90
13354;DHT22;6746;50.892;4.064;2022-10-16T01:03:51;13.00;99.90
13354;DHT22;6746;50.892;4.064;2022-10-16T01:06:38;13.00;99.90
13354;DHT22;6746;50.892;4.064;2022-10-16T01:09:17;12.90;99.90
13354;DHT22;6746;50.892;4.064;2022-10-16T01:12:15;12.90;99.90
13354;DHT22;6746;50.892;4.064;2022-10-16T01:17:57;13.00;99.90
13354;DHT22;6746;50.892;4.064;2022-10-16T01:20:54;12.90;99.90
13354;DHT22;6746;50.892;4.064;2022-10-16T01:26:58;12.90;99.90
13354;DHT22;6746;50.892;4.064;2022-10-16T01:29:34;12.80;99.90
13354;DHT22;6746;50.892;4.064;2022-10-16T01:32:24;12.80;99.90
13354;DHT22;6746;50.892;4.064;2022-10-16T01:38:23;12.70;99.90
13354;DHT22;6746;50.892;4.064;2022-10-16T01:41:12;12.70;99.90
13354;DHT22;6746;50.892;4.064;2022-10-16T01:43:59;12.70;99.90
13354;DHT22;6746;50.892;4.064;2022-10-16T01:46:39;12.70;99.90
13354;DHT22;6746;50.892;4.064;2022-10-16T01:49:16;12.60;99.90
13354;DHT22;6746;50.892;4.064;2022-10-16T01:51:57;12.60;99.90
13354;DHT22;6746;50.892;4.064;2022-10-16T01:54:35;12.60;99.90
13354;DHT22;6746;50.892;4.064;2022-10-16T01:57:12;12.50;99.90
13354;DHT22;6746;50.892;4.064;2022-10-16T01:59:51;12.60;99.90
13354;DHT22;6746;50.892;4.064;2022-10-16T02:02:31;12.50;99.90
13354;DHT22;6746;50.892;4.064;2022-10-16T02:05:55;12.60;99.90
13354;DHT22;6746;50.892;4.064;2022-10-16T02:07:56;12.50;99.90
13354;DHT22;6746;50.892;4.064;2022-10-16T02:10:34;12.50;99.90
13354;DHT22;6746;50.892;4.064;2022-10-16T02:13:19;12.50;99.90
13354;DHT22;6746;50.892;4.064;2022-10-16T02:16:01;12.50;99.90
13354;DHT22;6746;50.892;4.064;2022-10-16T02:18:48;12.50;99.90
13354;DHT22;6746;50.892;4.064;2022-10-16T02:21:30;12.50;99.90
13354;DHT22;6746;50.892;4.064;2022-10-16T02:24:09;12.50;99.90
13354;DHT22;6746;50.892;4.064;2022-10-16T02:29:41;12.50;99.90
13354;DHT22;6746;50.892;4.064;2022-10-16T02:32:27;12.40;99.90
13354;DHT22;6746;50.892;4.064;2022-10-16T02:35:04;12.40;99.90
13354;DHT22;6746;50.892;4.064;2022-10-16T02:37:45;12.40;99.90
13354;DHT22;6746;50.892;4.064;2022-10-16T02:40:22;12.40;99.90
13354;DHT22;6746;50.892;4.064;2022-10-16T02:43:02;12.40;99.90
13354;DHT22;6746;50.892;4.064;2022-10-16T02:45:38;12.40;99.90
13354;DHT22;6746;50.892;4.064;2022-10-16T02:48:16;12.50;99.90
13354;DHT22;6746;50.892;4.064;2022-10-16T02:50:54;12.50;99.90
13354;DHT22;6746;50.892;4.064;2022-10-16T02:53:32;12.50;99.90
13354;DHT22;6746;50.892;4.064;2022-10-16T02:56:10;12.50;99.90
13354;DHT22;6746;50.892;4.064;2022-10-16T02:58:58;12.50;99.90
13354;DHT22;6746;50.892;4.064;2022-10-16T03:01:36;12.60;99.90
13354;DHT22;6746;50.892;4.064;2022-10-16T03:04:14;12.50;99.90
13354;DHT22;6746;50.892;4.064;2022-10-16T03:06:52;12.60;99.90
13354;DHT22;6746;50.892;4.064;2022-10-16T03:09:30;12.60;99.90
13354;DHT22;6746;50.892;4.064;2022-10-16T03:12:10;12.50;99.90
13354;DHT22;6746;50.892;4.064;2022-10-16T03:14:48;12.60;99.90
13354;DHT22;6746;50.892;4.064;2022-10-16T03:17:26;12.60;99.90
13354;DHT22;6746;50.892;4.064;2022-10-16T03:20:04;12.60;99.90
13354;DHT22;6746;50.892;4.064;2022-10-16T03:22:45;12.60;99.90
13354;DHT22;6746;50.892;4.064;2022-10-16T03:25:23;12.60;99.90
13354;DHT22;6746;50.892;4.064;2022-10-16T03:28:10;12.60;99.90
13354;DHT22;6746;50.892;4.064;2022-10-16T03:30:48;12.60;99.90
13354;DHT22;6746;50.892;4.064;2022-10-16T03:33:26;12.60;99.90
13354;DHT22;6746;50.892;4.064;2022-10-16T03:36:07;12.60;99.90
13354;DHT22;6746;50.892;4.064;2022-10-16T03:38:45;12.60;99.90
13354;DHT22;6746;50.892;4.064;2022-10-16T03:41:23;12.60;99.90
13354;DHT22;6746;50.892;4.064;2022-10-16T03:44:01;12.60;99.90
13354;DHT22;6746;50.892;4.064;2022-10-16T03:46:39;12.60;99.90
13354;DHT22;6746;50.892;4.064;2022-10-16T03:49:17;12.60;99.90
13354;DHT22;6746;50.892;4.064;2022-10-16T03:52:04;12.50;99.90
13354;DHT22;6746;50.892;4.064;2022-10-16T03:54:52;12.50;99.90
13354;DHT22;6746;50.892;4.064;2022-10-16T03:57:35;12.50;99.90
13354;DHT22;6746;50.892;4.064;2022-10-16T04:00:13;12.50;99.90
13354;DHT22;6746;50.892;4.064;2022-10-16T04:03:01;12.50;99.90
13354;DHT22;6746;50.892;4.064;2022-10-16T04:05:39;12.50;99.90
13354;DHT22;6746;50.892;4.064;2022-10-16T04:08:16;12.60;99.90
13354;DHT22;6746;50.892;4.064;2022-10-16T04:11:04;12.60;99.90
13354;DHT22;6746;50.892;4.064;2022-10-16T04:13:42;12.50;99.90
13354;DHT22;6746;50.892;4.064;2022-10-16T04:16:20;12.60;99.90
13354;DHT22;6746;50.892;4.064;2022-10-16T04:18:58;12.60;99.90
13354;DHT22;6746;50.892;4.064;2022-10-16T04:21:36;12.60;99.90
13354;DHT22;6746;50.892;4.064;2022-10-16T04:24:17;12.50;99.90
13354;DHT22;6746;50.892;4.064;2022-10-16T04:26:55;12.60;99.90
13354;DHT22;6746;50.892;4.064;2022-10-16T04:29:33;12.60;99.90
13354;DHT22;6746;50.892;4.064;2022-10-16T04:32:11;12.50;99.90
13354;DHT22;6746;50.892;4.064;2022-10-16T04:34:49;12.50;99.90
13354;DHT22;6746;50.892;4.064;2022-10-16T04:37:27;12.50;99.90
13354;DHT22;6746;50.892;4.064;2022-10-16T04:40:05;12.40;99.90
13354;DHT22;6746;50.892;4.064;2022-10-16T04:42:43;12.50;99.90
13354;DHT22;6746;50.892;4.064;2022-10-16T04:45:23;12.50;99.90
13354;DHT22;6746;50.892;4.064;2022-10-16T04:48:01;12.50;99.90
13354;DHT22;6746;50.892;4.064;2022-10-16T04:50:39;12.50;99.90
13354;DHT22;6746;50.892;4.064;2022-10-16T04:53:17;12.50;99.90
13354;DHT22;6746;50.892;4.064;2022-10-16T04:56:03;12.40;99.90
13354;DHT22;6746;50.892;4.064;2022-10-16T04:58:41;12.40;99.90
13354;DHT22;6746;50.892;4.064;2022-10-16T05:01:19;12.30;99.90
13354;DHT22;6746;50.892;4.064;2022-10-16T05:03:57;12.30;99.90
13354;DHT22;6746;50.892;4.064;2022-10-16T05:06:43;12.30;99.90
13354;DHT22;6746;50.892;4.064;2022-10-16T05:09:21;12.30;99.90
13354;DHT22;6746;50.892;4.064;2022-10-16T05:12:02;12.20;99.90
13354;DHT22;6746;50.892;4.064;2022-10-16T05:14:40;12.20;99.90
13354;DHT22;6746;50.892;4.064;2022-10-16T05:17:18;12.30;99.90
13354;DHT22;6746;50.892;4.064;2022-10-16T05:19:56;12.30;99.90
13354;DHT22;6746;50.892;4.064;2022-10-16T05:22:34;12.30;99.90
13354;DHT22;6746;50.892;4.064;2022-10-16T05:25:12;12.30;99.90
13354;DHT22;6746;50.892;4.064;2022-10-16T05:27:52;12.30;99.90
13354;DHT22;6746;50.892;4.064;2022-10-16T05:30:30;12.20;99.90
13354;DHT22;6746;50.892;4.064;2022-10-16T05:33:08;12.10;99.90
13354;DHT22;6746;50.892;4.064;2022-10-16T05:35:46;12.20;99.90
13354;DHT22;6746;50.892;4.064;2022-10-16T05:38:32;12.20;99.90
13354;DHT22;6746;50.892;4.064;2022-10-16T05:41:10;12.20;99.90
13354;DHT22;6746;50.892;4.064;2022-10-16T05:43:48;12.10;99.90
13354;DHT22;6746;50.892;4.064;2022-10-16T05:46:26;12.20;99.90
13354;DHT22;6746;50.892;4.064;2022-10-16T05:49:07;12.20;99.90
13354;DHT22;6746;50.892;4.064;2022-10-16T05:51:45;12.20;99.90
13354;DHT22;6746;50.892;4.064;2022-10-16T05:54:33;12.30;99.90
13354;DHT22;6746;50.892;4.064;2022-10-16T05:57:14;12.30;99.90
13354;DHT22;6746;50.892;4.064;2022-10-16T05:59:52;12.40;99.90
13354;DHT22;6746;50.892;4.064;2022-10-16T06:02:40;12.50;99.90
13354;DHT22;6746;50.892;4.064;2022-10-16T06:05:18;12.50;99.90
13354;DHT22;6746;50.892;4.064;2022-10-16T06:07:56;12.60;99.90
13354;DHT22;6746;50.892;4.064;2022-10-16T06:10:44;12.70;99.90
13354;DHT22;6746;50.892;4.064;2022-10-16T06:13:26;12.70;99.90
13354;DHT22;6746;50.892;4.064;2022-10-16T06:16:04;12.70;99.90
13354;DHT22;6746;50.892;4.064;2022-10-16T06:18:45;12.70;99.90
13354;DHT22;6746;50.892;4.064;2022-10-16T06:21:23;12.80;99.90
13354;DHT22;6746;50.892;4.064;2022-10-16T06:24:03;12.80;99.90
13354;DHT22;6746;50.892;4.064;2022-10-16T06:26:41;12.80;99.90
13354;DHT22;6746;50.892;4.064;2022-10-16T06:29:09;12.80;99.90
13354;DHT22;6746;50.892;4.064;2022-10-16T06:31:38;12.80;99.90
13354;DHT22;6746;50.892;4.064;2022-10-16T06:34:19;12.80;99.90
13354;DHT22;6746;50.892;4.064;2022-10-16T06:36:47;12.80;99.90
13354;DHT22;6746;50.892;4.064;2022-10-16T06:39:20;12.80;99.90
13354;DHT22;6746;50.892;4.064;2022-10-16T06:41:48;12.90;99.90
13354;DHT22;6746;50.892;4.064;2022-10-16T06:44:25;13.00;99.90
13354;DHT22;6746;50.892;4.064;2022-10-16T06:47:01;13.00;99.90
13354;DHT22;6746;50.892;4.064;2022-10-16T06:49:38;13.00;99.90
13354;DHT22;6746;50.892;4.064;2022-10-16T06:52:06;13.00;99.90
13354;DHT22;6746;50.892;4.064;2022-10-16T06:54:44;13.00;99.90
13354;DHT22;6746;50.892;4.064;2022-10-16T06:57:15;12.90;99.90
13354;DHT22;6746;50.892;4.064;2022-10-16T06:59:43;12.90;99.90
13354;DHT22;6746;50.892;4.064;2022-10-16T07:02:14;12.90;99.90
13354;DHT22;6746;50.892;4.064;2022-10-16T07:04:43;13.10;99.90
13354;DHT22;6746;50.892;4.064;2022-10-16T07:07:23;13.20;99.90
13354;DHT22;6746;50.892;4.064;2022-10-16T07:10:01;13.40;99.90
13354;DHT22;6746;50.892;4.064;2022-10-16T07:12:39;13.50;99.90
13354;DHT22;6746;50.892;4.064;2022-10-16T07:15:17;13.70;99.90
13354;DHT22;6746;50.892;4.064;2022-10-16T07:17:55;13.80;99.90
13354;DHT22;6746;50.892;4.064;2022-10-16T07:20:23;13.90;99.90
13354;DHT22;6746;50.892;4.064;2022-10-16T07:22:57;14.00;99.90
13354;DHT22;6746;50.892;4.064;2022-10-16T07:25:30;14.10;99.90
13354;DHT22;6746;50.892;4.064;2022-10-16T07:27:58;14.20;99.90
13354;DHT22;6746;50.892;4.064;2022-10-16T07:30:26;14.30;99.90
13354;DHT22;6746;50.892;4.064;2022-10-16T07:33:04;14.40;99.90
13354;DHT22;6746;50.892;4.064;2022-10-16T07:35:32;14.40;99.90
13354;DHT22;6746;50.892;4.064;2022-10-16T07:38:10;14.50;99.90
13354;DHT22;6746;50.892;4.064;2022-10-16T07:40:42;14.50;99.90
13354;DHT22;6746;50.892;4.064;2022-10-16T07:43:11;14.60;99.90
13354;DHT22;6746;50.892;4.064;2022-10-16T07:45:49;14.80;99.90
13354;DHT22;6746;50.892;4.064;2022-10-16T07:48:20;14.80;99.90
13354;DHT22;6746;50.892;4.064;2022-10-16T07:50:49;14.80;99.90
13354;DHT22;6746;50.892;4.064;2022-10-16T07:53:26;14.80;99.90
13354;DHT22;6746;50.892;4.064;2022-10-16T07:55:59;14.80;99.90
13354;DHT22;6746;50.892;4.064;2022-10-16T07:58:43;14.90;99.90
13354;DHT22;6746;50.892;4.064;2022-10-16T08:01:21;15.10;99.90
13354;DHT22;6746;50.892;4.064;2022-10-16T08:03:57;15.20;99.90
13354;DHT22;6746;50.892;4.064;2022-10-16T08:06:26;15.40;99.90
13354;DHT22;6746;50.892;4.064;2022-10-16T08:09:00;15.50;99.90
13354;DHT22;6746;50.892;4.064;2022-10-16T08:11:29;15.60;99.90
13354;DHT22;6746;50.892;4.064;2022-10-16T08:14:07;15.70;99.90
13354;DHT22;6746;50.892;4.064;2022-10-16T08:16:45;15.80;99.90
13354;DHT22;6746;50.892;4.064;2022-10-16T08:19:28;15.90;99.90
13354;DHT22;6746;50.892;4.064;2022-10-16T08:22:06;16.00;99.90
13354;DHT22;6746;50.892;4.064;2022-10-16T08:24:35;16.10;99.90
13354;DHT22;6746;50.892;4.064;2022-10-16T08:27:03;16.20;99.90
13354;DHT22;6746;50.892;4.064;2022-10-16T08:29:40;16.30;99.90
13354;DHT22;6746;50.892;4.064;2022-10-16T08:32:08;16.30;99.90
13354;DHT22;6746;50.892;4.064;2022-10-16T08:34:42;16.40;99.90
13354;DHT22;6746;50.892;4.064;2022-10-16T08:37:10;16.50;99.90
13354;DHT22;6746;50.892;4.064;2022-10-16T08:39:39;16.50;99.90
13354;DHT22;6746;50.892;4.064;2022-10-16T08:42:31;16.60;99.90
13354;DHT22;6746;50.892;4.064;2022-10-16T08:45:15;16.70;99.90
13354;DHT22;6746;50.892;4.064;2022-10-16T08:50:33;16.90;99.90
13354;DHT22;6746;50.892;4.064;2022-10-16T08:53:05;17.00;99.90
13354;DHT22;6746;50.892;4.064;2022-10-16T08:55:46;17.10;99.90
13354;DHT22;6746;50.892;4.064;2022-10-16T08:58:27;17.10;99.90
13354;DHT22;6746;50.892;4.064;2022-10-16T09:01:14;17.10;99.90
13354;DHT22;6746;50.892;4.064;2022-10-16T09:06:46;17.30;99.90
13354;DHT22;6746;50.892;4.064;2022-10-16T09:12:53;17.30;99.90
13354;DHT22;6746;50.892;4.064;2022-10-16T09:15:52;17.40;99.90
13354;DHT22;6746;50.892;4.064;2022-10-16T09:18:28;17.50;99.90
13354;DHT22;6746;50.892;4.064;2022-10-16T09:23:35;17.60;99.90
13354;DHT22;6746;50.892;4.064;2022-10-16T09:26:12;17.60;99.90
13354;DHT22;6746;50.892;4.064;2022-10-16T09:28:40;17.70;99.90
13354;DHT22;6746;50.892;4.064;2022-10-16T09:31:25;17.70;99.90
13354;DHT22;6746;50.892;4.064;2022-10-16T09:34:04;17.70;99.90
13354;DHT22;6746;50.892;4.064;2022-10-16T09:36:50;17.80;99.90
13354;DHT22;6746;50.892;4.064;2022-10-16T09:39:18;17.80;99.90
13354;DHT22;6746;50.892;4.064;2022-10-16T09:41:57;17.90;99.90
13354;DHT22;6746;50.892;4.064;2022-10-16T09:44:28;17.90;99.90
13354;DHT22;6746;50.892;4.064;2022-10-16T09:47:17;18.10;99.90
13354;DHT22;6746;50.892;4.064;2022-10-16T09:49:51;18.10;99.90
13354;DHT22;6746;50.892;4.064;2022-10-16T09:52:19;18.10;99.90
13354;DHT22;6746;50.892;4.064;2022-10-16T09:54:51;18.20;99.90
13354;DHT22;6746;50.892;4.064;2022-10-16T09:57:29;18.30;99.90
13354;DHT22;6746;50.892;4.064;2022-10-16T09:59:57;18.30;99.90
13354;DHT22;6746;50.892;4.064;2022-10-16T10:02:35;18.00;99.90
13354;DHT22;6746;50.892;4.064;2022-10-16T10:05:23;17.90;99.90
13354;DHT22;6746;50.892;4.064;2022-10-16T10:07:59;17.90;99.90
13354;DHT22;6746;50.892;4.064;2022-10-16T10:10:38;17.80;99.90
13354;DHT22;6746;50.892;4.064;2022-10-16T10:13:24;17.70;99.90
13354;DHT22;6746;50.892;4.064;2022-10-16T10:15:50;17.70;99.90
13354;DHT22;6746;50.892;4.064;2022-10-16T10:18:29;17.80;99.90
13354;DHT22;6746;50.892;4.064;2022-10-16T10:21:12;18.00;99.90
13354;DHT22;6746;50.892;4.064;2022-10-16T10:23:45;18.00;99.90
13354;DHT22;6746;50.892;4.064;2022-10-16T10:26:24;18.00;99.90
13354;DHT22;6746;50.892;4.064;2022-10-16T10:29:25;18.10;99.90
13354;DHT22;6746;50.892;4.064;2022-10-16T10:37:55;17.90;99.90
13354;DHT22;6746;50.892;4.064;2022-10-16T10:43:37;17.80;99.90
13354;DHT22;6746;50.892;4.064;2022-10-16T10:49:45;18.40;99.90
13354;DHT22;6746;50.892;4.064;2022-10-16T10:58:33;18.60;99.90
13354;DHT22;6746;50.892;4.064;2022-10-16T11:06:36;18.60;99.90
13354;DHT22;6746;50.892;4.064;2022-10-16T11:12:26;18.50;99.90
13354;DHT22;6746;50.892;4.064;2022-10-16T11:15:25;18.60;99.90
13354;DHT22;6746;50.892;4.064;2022-10-16T11:18:11;18.60;99.90
13354;DHT22;6746;50.892;4.064;2022-10-16T11:20:56;18.80;99.90
13354;DHT22;6746;50.892;4.064;2022-10-16T11:23:26;18.90;99.90
13354;DHT22;6746;50.892;4.064;2022-10-16T11:26:04;18.90;99.90
13354;DHT22;6746;50.892;4.064;2022-10-16T11:28:36;18.80;99.90
13354;DHT22;6746;50.892;4.064;2022-10-16T11:33:47;18.70;99.90
13354;DHT22;6746;50.892;4.064;2022-10-16T11:36:25;18.70;99.90
13354;DHT22;6746;50.892;4.064;2022-10-16T11:42:02;18.60;99.90
13354;DHT22;6746;50.892;4.064;2022-10-16T11:47:40;19.10;99.90
13354;DHT22;6746;50.892;4.064;2022-10-16T11:53:15;19.30;99.90
13354;DHT22;6746;50.892;4.064;2022-10-16T11:55:55;19.10;99.90
13354;DHT22;6746;50.892;4.064;2022-10-16T11:58:29;19.00;99.90
13354;DHT22;6746;50.892;4.064;2022-10-16T12:04:25;18.80;99.90
13354;DHT22;6746;50.892;4.064;2022-10-16T12:07:01;18.80;99.90
13354;DHT22;6746;50.892;4.064;2022-10-16T12:09:34;18.70;99.90
13354;DHT22;6746;50.892;4.064;2022-10-16T12:17:47;18.60;99.90
13354;DHT22;6746;50.892;4.064;2022-10-16T12:20:30;18.70;99.90
13354;DHT22;6746;50.892;4.064;2022-10-16T12:22:59;18.80;99.90
13354;DHT22;6746;50.892;4.064;2022-10-16T12:25:39;18.90;99.90
13354;DHT22;6746;50.892;4.064;2022-10-16T12:28:20;19.00;99.90
13354;DHT22;6746;50.892;4.064;2022-10-16T12:30:53;19.00;99.90
13354;DHT22;6746;50.892;4.064;2022-10-16T12:33:41;19.10;99.90
13354;DHT22;6746;50.892;4.064;2022-10-16T12:36:35;19.10;99.90
13354;DHT22;6746;50.892;4.064;2022-10-16T12:39:04;19.10;99.90
13354;DHT22;6746;50.892;4.064;2022-10-16T12:41:35;19.10;99.90
13354;DHT22;6746;50.892;4.064;2022-10-16T12:44:04;18.90;99.90
13354;DHT22;6746;50.892;4.064;2022-10-16T12:52:01;18.90;99.90
13354;DHT22;6746;50.892;4.064;2022-10-16T12:54:36;19.10;99.90
13354;DHT22;6746;50.892;4.064;2022-10-16T13:12:26;19.80;99.90
13354;DHT22;6746;50.892;4.064;2022-10-16T13:15:23;19.60;99.90
13354;DHT22;6746;50.892;4.064;2022-10-16T13:17:59;19.60;99.90
13354;DHT22;6746;50.892;4.064;2022-10-16T13:20:47;19.60;99.90
13354;DHT22;6746;50.892;4.064;2022-10-16T13:28:37;19.30;99.90
13354;DHT22;6746;50.892;4.064;2022-10-16T13:31:05;19.40;99.90
13354;DHT22;6746;50.892;4.064;2022-10-16T13:33:43;19.60;99.90
13354;DHT22;6746;50.892;4.064;2022-10-16T13:36:20;19.60;99.90
13354;DHT22;6746;50.892;4.064;2022-10-16T13:39:00;19.80;99.90
13354;DHT22;6746;50.892;4.064;2022-10-16T13:42:05;19.80;99.90
13354;DHT22;6746;50.892;4.064;2022-10-16T13:44:39;19.80;99.90
13354;DHT22;6746;50.892;4.064;2022-10-16T13:47:24;19.60;99.90
13354;DHT22;6746;50.892;4.064;2022-10-16T13:50:04;19.70;99.90
13354;DHT22;6746;50.892;4.064;2022-10-16T13:52:31;19.70;99.90
13354;DHT22;6746;50.892;4.064;2022-10-16T13:55:15;19.70;99.90
13354;DHT22;6746;50.892;4.064;2022-10-16T13:57:53;19.60;99.90
13354;DHT22;6746;50.892;4.064;2022-10-16T14:00:42;19.50;99.90
13354;DHT22;6746;50.892;4.064;2022-10-16T14:03:15;19.50;99.90
13354;DHT22;6746;50.892;4.064;2022-10-16T14:05:47;19.40;99.90
13354;DHT22;6746;50.892;4.064;2022-10-16T14:08:35;19.50;99.90
13354;DHT22;6746;50.892;4.064;2022-10-16T14:11:13;19.60;99.90
13354;DHT22;6746;50.892;4.064;2022-10-16T14:13:44;19.70;99.90
13354;DHT22;6746;50.892;4.064;2022-10-16T14:16:23;19.60;99.90
13354;DHT22;6746;50.892;4.064;2022-10-16T14:19:01;19.80;99.90
13354;DHT22;6746;50.892;4.064;2022-10-16T14:21:32;19.70;99.90
13354;DHT22;6746;50.892;4.064;2022-10-16T14:24:10;19.50;99.90
13354;DHT22;6746;50.892;4.064;2022-10-16T14:26:44;19.50;99.90
13354;DHT22;6746;50.892;4.064;2022-10-16T14:29:25;19.50;99.90
13354;DHT22;6746;50.892;4.064;2022-10-16T14:32:20;19.40;99.90
13354;DHT22;6746;50.892;4.064;2022-10-16T14:34:35;19.20;99.90
13354;DHT22;6746;50.892;4.064;2022-10-16T14:37:09;19.00;99.90
13354;DHT22;6746;50.892;4.064;2022-10-16T14:39:49;19.00;99.90
13354;DHT22;6746;50.892;4.064;2022-10-16T14:42:18;18.90;99.90
13354;DHT22;6746;50.892;4.064;2022-10-16T14:45:00;18.90;99.90
13354;DHT22;6746;50.892;4.064;2022-10-16T14:47:29;18.80;99.90
13354;DHT22;6746;50.892;4.064;2022-10-16T14:50:08;18.80;99.90
13354;DHT22;6746;50.892;4.064;2022-10-16T14:52:41;18.90;99.90
13354;DHT22;6746;50.892;4.064;2022-10-16T14:55:10;18.90;99.90
13354;DHT22;6746;50.892;4.064;2022-10-16T14:57:51;18.90;99.90
13354;DHT22;6746;50.892;4.064;2022-10-16T15:00:29;18.80;99.90
13354;DHT22;6746;50.892;4.064;2022-10-16T15:03:03;18.80;99.90
13354;DHT22;6746;50.892;4.064;2022-10-16T15:05:31;18.90;99.90
13354;DHT22;6746;50.892;4.064;2022-10-16T15:08:08;18.90;99.90
13354;DHT22;6746;50.892;4.064;2022-10-16T15:10:46;18.90;99.90
13354;DHT22;6746;50.892;4.064;2022-10-16T15:13:17;18.90;99.90
13354;DHT22;6746;50.892;4.064;2022-10-16T15:15:46;18.90;99.90
13354;DHT22;6746;50.892;4.064;2022-10-16T15:18:22;19.00;99.90
13354;DHT22;6746;50.892;4.064;2022-10-16T15:20:50;19.00;99.90
13354;DHT22;6746;50.892;4.064;2022-10-16T15:23:38;19.00;99.90
13354;DHT22;6746;50.892;4.064;2022-10-16T15:26:10;19.00;99.90
13354;DHT22;6746;50.892;4.064;2022-10-16T15:28:39;18.90;99.90
13354;DHT22;6746;50.892;4.064;2022-10-16T15:31:22;18.80;99.90
13354;DHT22;6746;50.892;4.064;2022-10-16T15:33:52;18.80;99.90
13354;DHT22;6746;50.892;4.064;2022-10-16T15:36:28;18.80;99.90
13354;DHT22;6746;50.892;4.064;2022-10-16T15:39:12;18.80;99.90
13354;DHT22;6746;50.892;4.064;2022-10-16T15:41:49;18.70;99.90
13354;DHT22;6746;50.892;4.064;2022-10-16T15:44:30;18.70;99.90
13354;DHT22;6746;50.892;4.064;2022-10-16T15:47:08;18.60;99.90
13354;DHT22;6746;50.892;4.064;2022-10-16T15:49:36;18.60;99.90
13354;DHT22;6746;50.892;4.064;2022-10-16T15:52:13;18.50;99.90
13354;DHT22;6746;50.892;4.064;2022-10-16T15:54:51;18.50;99.90
13354;DHT22;6746;50.892;4.064;2022-10-16T15:57:32;18.50;99.90
13354;DHT22;6746;50.892;4.064;2022-10-16T16:00:04;18.50;99.90
13354;DHT22;6746;50.892;4.064;2022-10-16T16:02:42;18.40;99.90
13354;DHT22;6746;50.892;4.064;2022-10-16T16:05:10;18.40;99.90
13354;DHT22;6746;50.892;4.064;2022-10-16T16:07:39;18.30;99.90
13354;DHT22;6746;50.892;4.064;2022-10-16T16:10:09;18.20;99.90
13354;DHT22;6746;50.892;4.064;2022-10-16T16:12:47;18.20;99.90
13354;DHT22;6746;50.892;4.064;2022-10-16T16:15:24;18.20;99.90
13354;DHT22;6746;50.892;4.064;2022-10-16T16:17:57;18.10;99.90
13354;DHT22;6746;50.892;4.064;2022-10-16T16:20:36;18.00;99.90
13354;DHT22;6746;50.892;4.064;2022-10-16T16:23:24;18.00;99.90
13354;DHT22;6746;50.892;4.064;2022-10-16T16:26:11;18.00;99.90
13354;DHT22;6746;50.892;4.064;2022-10-16T16:28:41;17.90;99.90
13354;DHT22;6746;50.892;4.064;2022-10-16T16:31:29;17.90;99.90
13354;DHT22;6746;50.892;4.064;2022-10-16T16:34:01;17.80;99.90
13354;DHT22;6746;50.892;4.064;2022-10-16T16:36:29;17.80;99.90
13354;DHT22;6746;50.892;4.064;2022-10-16T16:39:08;17.80;99.90
13354;DHT22;6746;50.892;4.064;2022-10-16T16:41:56;17.80;99.90
13354;DHT22;6746;50.892;4.064;2022-10-16T16:44:34;17.70;99.90
13354;DHT22;6746;50.892;4.064;2022-10-16T16:47:12;17.70;99.90
13354;DHT22;6746;50.892;4.064;2022-10-16T16:49:40;17.70;99.90
13354;DHT22;6746;50.892;4.064;2022-10-16T16:52:18;17.50;99.90
13354;DHT22;6746;50.892;4.064;2022-10-16T16:54:59;17.50;99.90
13354;DHT22;6746;50.892;4.064;2022-10-16T16:57:37;17.50;99.90
13354;DHT22;6746;50.892;4.064;2022-10-16T17:00:25;17.40;99.90
13354;DHT22;6746;50.892;4.064;2022-10-16T17:03:08;17.50;99.90
13354;DHT22;6746;50.892;4.064;2022-10-16T17:05:58;17.40;99.90
13354;DHT22;6746;50.892;4.064;2022-10-16T17:08:39;17.40;99.90
13354;DHT22;6746;50.892;4.064;2022-10-16T17:11:18;17.30;99.90
13354;DHT22;6746;50.892;4.064;2022-10-16T17:14:01;17.20;99.90
13354;DHT22;6746;50.892;4.064;2022-10-16T17:16:39;17.10;99.90
13354;DHT22;6746;50.892;4.064;2022-10-16T17:19:26;17.00;99.90
13354;DHT22;6746;50.892;4.064;2022-10-16T17:22:12;16.90;99.90
13354;DHT22;6746;50.892;4.064;2022-10-16T17:24:50;16.80;99.90
13354;DHT22;6746;50.892;4.064;2022-10-16T17:27:28;16.70;99.90
13354;DHT22;6746;50.892;4.064;2022-10-16T17:30:06;16.60;99.90
13354;DHT22;6746;50.892;4.064;2022-10-16T17:32:47;16.60;99.90
13354;DHT22;6746;50.892;4.064;2022-10-16T17:35:25;16.50;99.90
13354;DHT22;6746;50.892;4.064;2022-10-16T17:38:14;16.50;99.90
13354;DHT22;6746;50.892;4.064;2022-10-16T17:40:54;16.50;99.90
13354;DHT22;6746;50.892;4.064;2022-10-16T17:43:32;16.40;99.90
13354;DHT22;6746;50.892;4.064;2022-10-16T17:46:14;16.30;99.90
13354;DHT22;6746;50.892;4.064;2022-10-16T17:48:51;16.30;99.90
13354;DHT22;6746;50.892;4.064;2022-10-16T17:51:36;16.20;99.90
13354;DHT22;6746;50.892;4.064;2022-10-16T17:54:14;16.20;99.90
13354;DHT22;6746;50.892;4.064;2022-10-16T17:56:55;16.10;99.90
13354;DHT22;6746;50.892;4.064;2022-10-16T17:59:33;16.10;99.90
13354;DHT22;6746;50.892;4.064;2022-10-16T18:02:21;16.10;99.90
13354;DHT22;6746;50.892;4.064;2022-10-16T18:05:07;16.10;99.90
13354;DHT22;6746;50.892;4.064;2022-10-16T18:07:46;16.00;99.90
13354;DHT22;6746;50.892;4.064;2022-10-16T18:10:24;16.00;99.90
13354;DHT22;6746;50.892;4.064;2022-10-16T18:13:02;16.00;99.90
13354;DHT22;6746;50.892;4.064;2022-10-16T18:15:40;16.00;99.90
13354;DHT22;6746;50.892;4.064;2022-10-16T18:18:18;16.00;99.90
13354;DHT22;6746;50.892;4.064;2022-10-16T18:20:57;16.00;99.90
13354;DHT22;6746;50.892;4.064;2022-10-16T18:23:37;16.00;99.90
13354;DHT22;6746;50.892;4.064;2022-10-16T18:26:15;16.00;99.90
13354;DHT22;6746;50.892;4.064;2022-10-16T18:28:54;15.90;99.90
13354;DHT22;6746;50.892;4.064;2022-10-16T18:31:34;15.90;99.90